createdAt,value
2023-05-01T00:00:54.800Z,10.48
2023-05-01T00:03:21.806Z,7.55
2023-05-01T00:05:49.515Z,8.40
2023-05-01T00:08:17.226Z,6.60
2023-05-01T00:10:44.621Z,10.63
2023-05-01T00:13:11.883Z,11.30
2023-05-01T00:15:42.526Z,8.00
2023-05-01T00:18:09.783Z,9.63
2023-05-01T00:20:37.021Z,10.70
2023-05-01T00:23:04.659Z,6.50
2023-05-01T00:25:31.941Z,5.60
2023-05-01T00:28:00.157Z,6.43
2023-05-01T00:30:27.913Z,6.35
2023-05-01T00:32:56.214Z,5.30
2023-05-01T00:35:23.408Z,7.95
2023-05-01T00:37:52.092Z,6.10
2023-05-01T00:40:20.145Z,6.35
2023-05-01T00:42:47.915Z,7.63
2023-05-01T00:45:16.147Z,6.03
2023-05-01T00:47:43.650Z,6.90
2023-05-01T00:50:12.126Z,6.20
2023-05-01T00:52:39.871Z,6.00
2023-05-01T00:55:10.841Z,6.53
2023-05-01T00:57:38.154Z,9.00
2023-05-01T01:00:06.109Z,5.40
2023-05-01T01:02:33.972Z,7.53
2023-05-01T01:05:01.186Z,3.53
2023-05-01T01:07:42.726Z,5.60
2023-05-01T01:10:41.510Z,6.00
2023-05-01T01:13:18.552Z,9.07
2023-05-01T01:16:20.470Z,6.45
2023-05-01T01:19:02.960Z,6.45
2023-05-01T01:21:42.508Z,5.60
2023-05-01T01:24:15.946Z,6.00
2023-05-01T01:26:58.905Z,5.95
2023-05-01T01:32:18.748Z,4.47
2023-05-01T01:34:56.827Z,4.45
2023-05-01T01:37:38.287Z,4.97
2023-05-01T01:40:10.731Z,5.63
2023-05-01T01:42:45.343Z,5.20
2023-05-01T01:45:31.937Z,4.10
2023-05-01T01:48:01.278Z,4.13
2023-05-01T01:50:29.260Z,7.82
2023-05-01T01:53:00.408Z,5.93
2023-05-01T01:55:31.574Z,5.53
2023-05-01T01:58:00.036Z,4.13
2023-05-01T02:00:28.845Z,5.05
2023-05-01T02:02:59.703Z,6.38
2023-05-01T02:05:31.619Z,6.32
2023-05-01T02:07:59.952Z,4.70
2023-05-01T02:10:31.344Z,4.80
2023-05-01T02:12:59.622Z,4.80
2023-05-01T02:15:28.969Z,6.90
2023-05-01T02:18:05.313Z,6.78
2023-05-01T02:20:34.764Z,4.65
2023-05-01T02:23:07.264Z,5.80
2023-05-01T02:25:40.120Z,9.55
2023-05-01T02:30:53.670Z,6.68
2023-05-01T02:33:27.414Z,4.82
2023-05-01T02:35:55.247Z,4.68
2023-05-01T02:38:23.469Z,5.00
2023-05-01T02:40:56.873Z,5.45
2023-05-01T02:43:30.731Z,7.00
2023-05-01T02:46:02.935Z,4.55
2023-05-01T02:48:31.926Z,3.92
2023-05-01T02:51:02.969Z,7.97
2023-05-01T02:53:32.287Z,4.53
2023-05-01T02:56:08.998Z,4.93
2023-05-01T02:58:39.083Z,6.97
2023-05-01T03:01:07.988Z,5.28
2023-05-01T03:03:36.028Z,3.90
2023-05-01T03:06:04.725Z,5.25
2023-05-01T03:08:33.109Z,5.38
2023-05-01T03:11:06.557Z,3.60
2023-05-01T03:13:39.080Z,5.40
2023-05-01T03:16:07.129Z,6.00
2023-05-01T03:18:35.599Z,6.10
2023-05-01T03:21:04.823Z,4.38
2023-05-01T03:23:33.357Z,4.80
2023-05-01T03:26:02.426Z,7.15
2023-05-01T03:28:31.260Z,5.22
2023-05-01T03:30:58.912Z,3.67
2023-05-01T03:33:27.957Z,2.90
2023-05-01T03:36:04.564Z,4.35
2023-05-01T03:38:34.201Z,2.75
2023-05-01T03:41:10.776Z,2.50
2023-05-01T03:43:56.760Z,2.60
2023-05-01T03:46:47.068Z,2.92
2023-05-01T03:49:21.772Z,2.13
2023-05-01T03:51:51.875Z,2.65
2023-05-01T03:54:19.139Z,2.42
2023-05-01T03:56:57.229Z,2.17
2023-05-01T03:59:25.129Z,3.83
2023-05-01T04:01:52.306Z,3.35
2023-05-01T04:04:19.431Z,2.20
2023-05-01T04:06:53.731Z,3.28
2023-05-01T04:09:24.387Z,2.03
2023-05-01T04:11:52.282Z,2.20
2023-05-01T04:14:19.807Z,2.05
2023-05-01T04:16:47.300Z,2.00
2023-05-01T04:19:15.236Z,2.42
2023-05-01T04:21:45.290Z,2.10
2023-05-01T04:24:13.405Z,2.95
2023-05-01T04:26:42.846Z,1.75
2023-05-01T04:29:10.696Z,3.05
2023-05-01T04:31:38.704Z,4.95
2023-05-01T04:34:07.050Z,3.05
2023-05-01T04:36:37.210Z,3.17
2023-05-01T04:39:04.870Z,2.67
2023-05-01T04:41:32.824Z,4.53
2023-05-01T04:44:00.661Z,5.10
2023-05-01T04:46:27.951Z,2.10
2023-05-01T04:48:55.513Z,2.67
2023-05-01T04:51:23.747Z,2.35
2023-05-01T04:53:51.947Z,3.30
2023-05-01T04:56:26.432Z,2.75
2023-05-01T04:59:00.991Z,2.83
2023-05-01T05:01:30.267Z,3.25
2023-05-01T05:03:58.692Z,3.40
2023-05-01T05:06:26.697Z,4.28
2023-05-01T05:08:54.392Z,3.72
2023-05-01T05:11:22.123Z,2.33
2023-05-01T05:13:52.056Z,2.50
2023-05-01T05:16:20.597Z,4.28
2023-05-01T05:18:47.790Z,4.30
2023-05-01T05:21:15.373Z,3.13
2023-05-01T05:23:51.620Z,3.53
2023-05-01T05:26:19.403Z,4.18
2023-05-01T05:28:48.565Z,2.72
2023-05-01T05:31:15.652Z,1.95
2023-05-01T05:33:42.555Z,2.60
2023-05-01T05:36:10.290Z,3.45
2023-05-01T05:38:40.892Z,2.97
2023-05-01T05:41:10.793Z,2.78
2023-05-01T05:43:39.109Z,2.38
2023-05-01T05:46:07.815Z,1.58
2023-05-01T05:48:36.982Z,3.55
2023-05-01T05:51:04.866Z,2.72
2023-05-01T05:53:32.606Z,1.90
2023-05-01T05:55:59.927Z,2.45
2023-05-01T05:58:28.116Z,1.77
2023-05-01T06:00:58.657Z,2.72
2023-05-01T06:03:27.583Z,1.73
2023-05-01T06:05:59.482Z,2.70
2023-05-01T06:08:27.542Z,1.75
2023-05-01T06:10:54.581Z,1.52
2023-05-01T06:13:22.010Z,1.65
2023-05-01T06:15:50.291Z,2.90
2023-05-01T06:18:17.880Z,2.72
2023-05-01T06:20:45.987Z,1.90
2023-05-01T06:23:13.970Z,2.10
2023-05-01T06:26:04.280Z,1.88
2023-05-01T06:28:31.517Z,3.72
2023-05-01T06:30:58.960Z,1.40
2023-05-01T06:33:27.582Z,1.80
2023-05-01T06:36:14.979Z,4.00
2023-05-01T06:38:49.234Z,3.05
2023-05-01T06:41:17.409Z,0.57
2023-05-01T06:43:46.117Z,0.82
2023-05-01T06:46:13.645Z,5.03
2023-05-01T06:48:41.134Z,0.93
2023-05-01T06:51:08.440Z,1.60
2023-05-01T06:53:36.963Z,2.28
2023-05-01T06:56:06.097Z,1.25
2023-05-01T06:58:33.610Z,3.13
2023-05-01T07:01:00.966Z,3.70
2023-05-01T07:03:28.786Z,0.90
2023-05-01T07:05:56.615Z,1.63
2023-05-01T07:08:24.676Z,1.30
2023-05-01T07:10:54.253Z,2.10
2023-05-01T07:13:22.346Z,1.20
2023-05-01T07:15:50.087Z,1.25
2023-05-01T07:18:18.900Z,1.15
2023-05-01T07:20:47.385Z,3.00
2023-05-01T07:23:14.743Z,3.38
2023-05-01T07:25:43.084Z,4.07
2023-05-01T07:28:11.870Z,1.77
2023-05-01T07:30:40.223Z,2.03
2023-05-01T07:33:07.720Z,2.10
2023-05-01T07:35:35.696Z,0.75
2023-05-01T07:38:05.349Z,0.90
2023-05-01T07:40:37.038Z,1.10
2023-05-01T07:43:06.027Z,1.40
2023-05-01T07:45:36.344Z,0.55
2023-05-01T07:48:06.893Z,1.13
2023-05-01T07:50:36.552Z,1.55
2023-05-01T07:53:05.006Z,2.20
2023-05-01T07:55:32.842Z,1.80
2023-05-01T07:58:01.620Z,0.82
2023-05-01T08:00:32.200Z,1.77
2023-05-01T08:03:01.292Z,1.80
2023-05-01T08:05:32.917Z,2.95
2023-05-01T08:08:02.923Z,2.85
2023-05-01T08:10:32.454Z,2.15
2023-05-01T08:13:01.268Z,2.38
2023-05-01T08:15:29.765Z,1.30
2023-05-01T08:18:01.521Z,1.23
2023-05-01T08:20:30.429Z,1.80
2023-05-01T08:22:58.443Z,1.63
2023-05-01T08:25:28.585Z,1.00
2023-05-01T08:27:57.876Z,4.28
2023-05-01T08:30:28.733Z,1.48
2023-05-01T08:32:57.605Z,0.93
2023-05-01T08:35:25.806Z,1.60
2023-05-01T08:37:56.723Z,1.98
2023-05-01T08:40:29.107Z,1.13
2023-05-01T08:43:00.865Z,4.20
2023-05-01T08:45:32.025Z,2.47
2023-05-01T08:48:02.080Z,0.75
2023-05-01T08:50:32.036Z,1.45
2023-05-01T08:53:05.014Z,1.50
2023-05-01T08:55:37.727Z,1.98
2023-05-01T08:58:08.066Z,1.85
2023-05-01T09:00:37.804Z,2.75
2023-05-01T09:03:06.809Z,0.93
2023-05-01T09:05:34.714Z,1.33
2023-05-01T09:08:02.966Z,1.27
2023-05-01T09:10:33.876Z,1.58
2023-05-01T09:13:07.667Z,1.38
2023-05-01T09:15:36.050Z,0.77
2023-05-01T09:18:12.832Z,0.95
2023-05-01T09:20:42.277Z,0.90
2023-05-01T09:23:09.274Z,2.03
2023-05-01T09:25:36.671Z,1.08
2023-05-01T09:28:05.910Z,1.42
2023-05-01T09:30:38.622Z,1.17
2023-05-01T09:33:13.845Z,3.08
2023-05-01T09:35:51.637Z,1.35
2023-05-01T09:38:24.704Z,0.60
2023-05-01T09:40:54.644Z,0.60
2023-05-01T09:43:29.063Z,1.77
2023-05-01T09:46:05.549Z,1.08
2023-05-01T09:48:35.783Z,1.77
2023-05-01T09:51:29.253Z,2.85
2023-05-01T09:54:01.981Z,1.58
2023-05-01T09:56:31.578Z,2.83
2023-05-01T09:59:17.891Z,0.60
2023-05-01T10:01:46.979Z,6.00
2023-05-01T10:04:14.345Z,0.47
2023-05-01T10:06:42.373Z,2.72
2023-05-01T10:09:16.953Z,0.82
2023-05-01T10:11:57.884Z,0.90
2023-05-01T10:14:27.209Z,0.82
2023-05-01T10:16:54.427Z,0.50
2023-05-01T10:19:21.644Z,0.80
2023-05-01T10:21:48.911Z,1.48
2023-05-01T10:24:17.351Z,1.25
2023-05-01T10:26:45.042Z,1.10
2023-05-01T10:29:13.084Z,0.82
2023-05-01T10:31:42.284Z,2.25
2023-05-01T10:34:12.231Z,1.58
2023-05-01T10:36:49.791Z,0.40
2023-05-01T10:39:33.769Z,1.63
2023-05-01T10:42:04.980Z,0.98
2023-05-01T10:44:32.581Z,3.00
2023-05-01T10:46:59.901Z,1.15
2023-05-01T10:50:05.481Z,1.88
2023-05-01T10:53:14.780Z,3.10
2023-05-01T10:55:45.237Z,2.30
2023-05-01T10:58:14.281Z,0.85
2023-05-01T11:00:42.464Z,1.88
2023-05-01T11:03:21.590Z,1.70
2023-05-01T11:06:01.426Z,0.88
2023-05-01T11:08:35.613Z,1.65
2023-05-01T11:11:23.672Z,1.05
2023-05-01T11:14:02.204Z,0.60
2023-05-01T11:16:39.150Z,1.10
2023-05-01T11:19:29.575Z,1.00
2023-05-01T11:21:57.749Z,0.82
2023-05-01T11:24:33.891Z,0.45
2023-05-01T11:27:02.344Z,1.48
2023-05-01T11:29:33.647Z,1.65
2023-05-01T11:32:01.996Z,1.48
2023-05-01T11:34:36.065Z,0.90
2023-05-01T11:37:03.318Z,0.57
2023-05-01T11:39:30.822Z,2.92
2023-05-01T11:42:10.524Z,1.27
2023-05-01T11:44:38.328Z,0.80
2023-05-01T11:47:08.044Z,0.50
2023-05-01T11:49:39.403Z,0.88
2023-05-01T11:52:07.740Z,4.45
2023-05-01T11:54:48.199Z,1.67
2023-05-01T11:57:15.330Z,1.58
2023-05-01T11:59:47.588Z,0.90
2023-05-01T12:02:21.345Z,0.70
2023-05-01T12:04:48.862Z,0.75
2023-05-01T12:07:25.666Z,0.90
2023-05-01T12:09:53.472Z,2.70
2023-05-01T12:12:20.616Z,0.65
2023-05-01T12:14:47.862Z,1.17
2023-05-01T12:17:18.202Z,1.95
2023-05-01T12:19:49.048Z,0.82
2023-05-01T12:22:17.458Z,2.30
2023-05-01T12:24:52.904Z,0.60
2023-05-01T12:27:20.456Z,1.65
2023-05-01T12:29:48.405Z,1.73
2023-05-01T12:32:17.258Z,0.38
2023-05-01T12:34:45.261Z,0.68
2023-05-01T12:37:12.438Z,0.98
2023-05-01T12:39:42.387Z,1.15
2023-05-01T12:42:15.615Z,1.95
2023-05-01T12:44:44.298Z,0.80
2023-05-01T12:47:13.008Z,2.40
2023-05-01T12:49:40.911Z,5.80
2023-05-01T12:52:09.430Z,1.00
2023-05-01T12:54:38.876Z,0.70
2023-05-01T12:57:18.134Z,1.00
2023-05-01T12:59:47.357Z,1.63
2023-05-01T13:02:17.523Z,1.67
2023-05-01T13:04:45.391Z,3.92
2023-05-01T13:07:17.422Z,0.50
2023-05-01T13:09:59.417Z,1.10
2023-05-01T13:12:28.628Z,0.68
2023-05-01T13:14:57.568Z,1.92
2023-05-01T13:17:30.095Z,1.25
2023-05-01T13:20:03.281Z,3.83
2023-05-01T13:22:38.698Z,2.25
2023-05-01T13:25:16.348Z,0.90
2023-05-01T13:27:50.428Z,0.98
2023-05-01T13:30:31.316Z,1.67
2023-05-01T13:32:58.971Z,1.05
2023-05-01T13:35:27.830Z,2.42
2023-05-01T13:37:55.403Z,1.45
2023-05-01T13:40:26.550Z,0.52
2023-05-01T13:42:56.448Z,0.70
2023-05-01T13:45:25.484Z,0.70
2023-05-01T13:47:52.839Z,2.47
2023-05-01T13:50:20.581Z,9.52
2023-05-01T13:52:48.686Z,1.73
2023-05-01T13:55:17.922Z,1.13
2023-05-01T13:57:45.378Z,1.85
2023-05-01T14:00:19.712Z,1.13
2023-05-01T14:02:49.187Z,1.25
2023-05-01T14:05:17.180Z,1.33
2023-05-01T14:07:58.785Z,0.50
2023-05-01T14:10:28.747Z,6.70
2023-05-01T14:12:59.067Z,2.03
2023-05-01T14:15:27.474Z,7.03
2023-05-01T14:17:55.015Z,1.90
2023-05-01T14:20:25.778Z,0.90
2023-05-01T14:22:53.773Z,1.45
2023-05-01T14:25:23.472Z,0.85
2023-05-01T14:27:55.225Z,0.50
2023-05-01T14:30:30.209Z,3.10
2023-05-01T14:32:57.528Z,1.27
2023-05-01T14:35:25.304Z,2.97
2023-05-01T14:37:54.855Z,0.80
2023-05-01T14:40:30.803Z,3.25
2023-05-01T14:42:58.423Z,3.08
2023-05-01T14:45:26.111Z,0.57
2023-05-01T14:47:53.643Z,2.63
2023-05-01T14:50:22.877Z,1.90
2023-05-01T14:52:58.408Z,1.95
2023-05-01T14:55:29.738Z,0.85
2023-05-01T14:57:58.220Z,3.67
2023-05-01T15:00:26.956Z,2.42
2023-05-01T15:02:58.083Z,1.40
2023-05-01T15:05:26.513Z,1.05
2023-05-01T15:08:01.299Z,6.55
2023-05-01T15:10:29.654Z,2.45
2023-05-01T15:12:58.369Z,1.67
2023-05-01T15:15:27.134Z,4.32
2023-05-01T15:17:54.785Z,0.82
2023-05-01T15:20:23.574Z,2.03
2023-05-01T15:22:51.099Z,2.97
2023-05-01T15:25:18.590Z,0.73
2023-05-01T15:27:46.563Z,1.55
2023-05-01T15:30:15.426Z,1.45
2023-05-01T15:32:43.156Z,1.05
2023-05-01T15:35:10.893Z,0.85
2023-05-01T15:37:38.824Z,2.05
2023-05-01T15:40:07.346Z,1.67
2023-05-01T15:42:37.446Z,2.22
2023-05-01T15:45:06.143Z,0.95
2023-05-01T15:47:33.691Z,0.57
2023-05-01T15:50:04.054Z,1.42
2023-05-01T15:52:31.530Z,0.73
2023-05-01T15:54:59.257Z,6.20
2023-05-01T15:57:26.960Z,1.33
2023-05-01T15:59:56.201Z,1.48
2023-05-01T16:02:23.947Z,0.65
2023-05-01T16:04:52.270Z,2.42
2023-05-01T16:07:22.006Z,1.20
2023-05-01T16:09:49.624Z,0.73
2023-05-01T16:12:21.512Z,1.27
2023-05-01T16:14:49.349Z,0.77
2023-05-01T16:17:18.873Z,1.63
2023-05-01T16:19:47.025Z,3.40
2023-05-01T16:22:15.369Z,4.93
2023-05-01T16:24:42.894Z,1.50
2023-05-01T16:27:14.087Z,2.30
2023-05-01T16:29:41.621Z,3.45
2023-05-01T16:32:11.693Z,3.58
2023-05-01T16:34:40.689Z,3.38
2023-05-01T16:37:07.995Z,3.25
2023-05-01T16:39:39.835Z,2.67
2023-05-01T16:42:07.402Z,1.77
2023-05-01T16:44:37.031Z,2.78
2023-05-01T16:47:05.402Z,2.08
2023-05-01T16:49:33.044Z,3.47
2023-05-01T16:52:03.361Z,1.92
2023-05-01T16:54:37.398Z,1.65
2023-05-01T16:57:05.785Z,6.10
2023-05-01T16:59:34.746Z,3.20
2023-05-01T17:02:04.560Z,4.72
2023-05-01T17:04:32.335Z,1.40
2023-05-01T17:07:00.092Z,0.95
2023-05-01T17:09:27.618Z,3.22
2023-05-01T17:11:57.036Z,5.53
2023-05-01T17:14:24.608Z,2.17
2023-05-01T17:16:52.172Z,2.00
2023-05-01T17:19:19.929Z,3.03
2023-05-01T17:21:47.618Z,3.10
2023-05-01T17:24:14.908Z,5.30
2023-05-01T17:26:42.623Z,3.13
2023-05-01T17:29:10.081Z,2.10
2023-05-01T17:31:37.278Z,3.30
2023-05-01T17:34:04.672Z,4.10
2023-05-01T17:36:32.467Z,4.85
2023-05-01T17:39:01.682Z,2.80
2023-05-01T17:41:29.385Z,2.92
2023-05-01T17:43:56.899Z,2.17
2023-05-01T17:46:24.367Z,1.95
2023-05-01T17:48:52.152Z,7.50
2023-05-01T17:51:19.931Z,2.08
2023-05-01T17:53:47.492Z,3.78
2023-05-01T17:56:16.202Z,2.38
2023-05-01T17:58:43.482Z,4.00
2023-05-01T18:01:11.413Z,4.90
2023-05-01T18:03:39.238Z,10.48
2023-05-01T18:06:07.045Z,12.45
2023-05-01T18:08:34.734Z,2.58
2023-05-01T18:11:03.093Z,2.55
2023-05-01T18:13:33.781Z,10.93
2023-05-01T18:16:01.377Z,3.05
2023-05-01T18:18:28.866Z,4.93
2023-05-01T18:20:56.265Z,3.47
2023-05-01T18:23:25.559Z,5.10
2023-05-01T18:25:52.900Z,3.72
2023-05-01T18:28:20.387Z,5.03
2023-05-01T18:30:47.980Z,7.60
2023-05-01T18:33:15.753Z,5.55
2023-05-01T18:35:43.508Z,7.30
2023-05-01T18:38:11.283Z,8.55
2023-05-01T18:40:39.766Z,10.88
2023-05-01T18:43:07.011Z,8.25
2023-05-01T18:45:34.457Z,23.93
2023-05-01T18:48:02.004Z,21.88
2023-05-01T18:50:29.503Z,19.35
2023-05-01T18:52:56.644Z,16.48
2023-05-01T18:55:23.794Z,13.02
2023-05-01T18:57:51.352Z,10.77
2023-05-01T19:00:20.680Z,10.65
2023-05-01T19:02:52.204Z,11.75
2023-05-01T19:05:20.067Z,7.00
2023-05-01T19:07:47.427Z,10.52
2023-05-01T19:10:15.010Z,15.80
2023-05-01T19:12:42.734Z,10.77
2023-05-01T19:15:10.584Z,13.18
2023-05-01T19:17:37.996Z,13.75
2023-05-01T19:20:06.067Z,16.52
2023-05-01T19:22:33.531Z,22.65
2023-05-01T19:25:02.766Z,26.52
2023-05-01T19:27:31.328Z,26.17
2023-05-01T19:30:01.410Z,19.58
2023-05-01T19:32:29.414Z,20.65
2023-05-01T19:34:57.124Z,18.08
2023-05-01T19:37:24.904Z,15.77
2023-05-01T19:39:52.336Z,10.13
2023-05-01T19:42:20.037Z,12.57
2023-05-01T19:44:47.506Z,12.15
2023-05-01T19:47:14.941Z,15.52
2023-05-01T19:49:44.120Z,18.95
2023-05-01T19:52:11.488Z,14.45
2023-05-01T19:54:38.866Z,13.13
2023-05-01T19:57:06.390Z,14.55
2023-05-01T19:59:36.343Z,18.17
2023-05-01T20:02:04.747Z,15.85
2023-05-01T20:04:32.101Z,16.70
2023-05-01T20:06:59.676Z,22.80
2023-05-01T20:09:27.181Z,16.33
2023-05-01T20:11:54.575Z,14.40
2023-05-01T20:14:21.980Z,16.33
2023-05-01T20:16:53.356Z,17.17
2023-05-01T20:19:20.731Z,19.63
2023-05-01T20:21:48.280Z,17.05
2023-05-01T20:24:15.358Z,16.30
2023-05-01T20:26:42.724Z,17.60
2023-05-01T20:29:10.467Z,20.00
2023-05-01T20:31:37.656Z,17.20
2023-05-01T20:34:05.098Z,15.13
2023-05-01T20:36:32.428Z,14.35
2023-05-01T20:38:59.715Z,22.10
2023-05-01T20:41:28.227Z,25.08
2023-05-01T20:43:56.198Z,58.17
2023-05-01T20:46:24.077Z,61.88
2023-05-01T20:48:51.996Z,36.45
2023-05-01T20:51:19.693Z,31.35
2023-05-01T20:53:47.143Z,22.30
2023-05-01T20:56:14.689Z,26.33
2023-05-01T20:58:41.689Z,19.45
2023-05-01T21:01:09.544Z,20.63
2023-05-01T21:03:37.027Z,22.20
2023-05-01T21:06:04.783Z,19.65
2023-05-01T21:08:33.845Z,22.02
2023-05-01T21:11:02.090Z,18.77
2023-05-01T21:13:29.854Z,17.20
2023-05-01T21:15:57.089Z,11.40
2023-05-01T21:18:24.458Z,12.68
2023-05-01T21:20:52.516Z,16.90
2023-05-01T21:23:19.924Z,13.82
2023-05-01T21:25:47.550Z,13.07
2023-05-01T21:28:15.293Z,20.00
2023-05-01T21:30:42.902Z,22.00
2023-05-01T21:33:14.530Z,18.98
2023-05-01T21:35:43.530Z,19.40
2023-05-01T21:38:11.397Z,17.48
2023-05-01T21:40:41.576Z,17.60
2023-05-01T21:43:09.716Z,11.20
2023-05-01T21:45:40.643Z,16.55
2023-05-01T21:48:09.719Z,12.32
2023-05-01T21:50:38.308Z,11.80
2023-05-01T21:53:07.212Z,14.73
2023-05-01T21:55:34.641Z,15.98
2023-05-01T21:58:02.480Z,14.82
2023-05-01T22:00:30.472Z,16.23
2023-05-01T22:02:57.992Z,12.10
2023-05-01T22:05:25.603Z,13.77
2023-05-01T22:07:54.670Z,9.20
2023-05-01T22:10:22.315Z,15.05
2023-05-01T22:12:49.605Z,11.35
2023-05-01T22:15:17.324Z,15.50
2023-05-01T22:17:45.317Z,11.73
2023-05-01T22:20:12.953Z,11.85
2023-05-01T22:22:43.441Z,9.45
2023-05-01T22:25:12.246Z,11.35
2023-05-01T22:27:39.846Z,12.20
2023-05-01T22:30:07.689Z,10.70
2023-05-01T22:32:35.012Z,7.97
2023-05-01T22:35:02.180Z,12.25
2023-05-01T22:37:29.623Z,13.98
2023-05-01T22:39:57.179Z,13.45
2023-05-01T22:42:25.024Z,12.32
2023-05-01T22:44:52.487Z,13.30
2023-05-01T22:47:19.829Z,10.48
2023-05-01T22:49:47.506Z,10.43
2023-05-01T22:52:15.288Z,6.60
2023-05-01T22:54:42.879Z,10.52
2023-05-01T22:57:10.593Z,11.63
2023-05-01T22:59:39.758Z,9.48
2023-05-01T23:02:07.430Z,14.85
2023-05-01T23:04:34.814Z,9.60
2023-05-01T23:07:02.235Z,15.20
2023-05-01T23:09:32.359Z,11.95
2023-05-01T23:12:00.785Z,12.60
2023-05-01T23:14:28.084Z,9.98
2023-05-01T23:16:55.516Z,11.00
2023-05-01T23:19:25.377Z,12.05
2023-05-01T23:22:08.687Z,8.48
2023-05-01T23:24:41.763Z,10.02
2023-05-01T23:27:09.203Z,11.50
2023-05-01T23:29:36.798Z,10.52
2023-05-01T23:32:04.759Z,12.05
2023-05-01T23:34:32.701Z,11.70
2023-05-01T23:37:00.132Z,12.07
2023-05-01T23:39:27.113Z,7.85
2023-05-01T23:41:54.900Z,11.05
2023-05-01T23:44:22.626Z,10.52
2023-05-01T23:46:50.136Z,11.38
2023-05-01T23:49:17.163Z,9.40
2023-05-01T23:51:44.853Z,8.18
2023-05-01T23:54:11.870Z,12.20
2023-05-01T23:56:39.107Z,10.02
2023-05-01T23:59:06.417Z,9.82
